Capitol Logistics 284




TGPY
Maurice Bishop International Airport
St. George's, GD
TJSJ
Luis Munoz Marin International Airport
San Juan, PR

Activity Log

Date Flight Route Aircraft Duration
04/16/2021 CPX3284 SV GEECE COY SF34 2h 29m

Route Details

Aircraft Information
Group: Narrowbodies
Types: B738,B752
Route Data
Demand: V
Distance: 457nm
Duration: 1h 50m
Recm'd Route: DUSAL PERRY UG449 ANADA JOSHE JOSHE3
Origin Wx: TGPY 242000Z 09021KT 9999 FEW018 SCT036 BKN080 30/23 Q1012 NOSIG
Dest. Wx: TJSJ 241956Z 06014KT 10SM FEW032CB SCT065 BKN080 28/23 A2997 RMK AO2 SLP148 CB S-W MOV E VCSH S-SW T02830233
Notes:

Financial History
Total Freight: 765lbs
Average Load: 765lbs/flt
Fuel Used: 1,428lbs
Avg. Fuel Used: 1,428lbs/flt
Fuel Expense: $471
Avg. Fuel Expense: $471
Avg. Fuel Cost: $0.33/lbs
Total Gross Income: $1,140
Pilot Pay: $239
Total Expenses: $5,884
Total Revenue: $-5,809
Average Revenue: $1,139.85